createdAt,value
2022-10-05T00:01:52.441Z,9.15
2022-10-05T00:04:21.941Z,9.10
2022-10-05T00:07:17.316Z,9.06
2022-10-05T00:09:55.291Z,9.00
2022-10-05T00:12:22.612Z,8.66
2022-10-05T00:14:51.076Z,8.89
2022-10-05T00:17:26.233Z,9.01
2022-10-05T00:19:53.945Z,8.91
2022-10-05T00:22:23.441Z,8.99
2022-10-05T00:24:55.028Z,8.98
2022-10-05T00:27:24.636Z,8.90
2022-10-05T00:29:53.706Z,8.61
2022-10-05T00:32:20.089Z,8.70
2022-10-05T00:34:46.701Z,8.69
2022-10-05T00:37:14.173Z,8.65
2022-10-05T00:39:42.139Z,8.69
2022-10-05T00:42:30.296Z,8.71
2022-10-05T00:45:30.787Z,8.60
2022-10-05T00:48:26.711Z,8.53
2022-10-05T00:51:12.764Z,8.47
2022-10-05T00:53:59.419Z,8.42
2022-10-05T00:56:51.746Z,8.35
2022-10-05T00:59:37.016Z,8.32
2022-10-05T01:02:18.252Z,8.41
2022-10-05T01:05:07.638Z,8.61
2022-10-05T01:07:49.755Z,8.63
2022-10-05T01:10:49.853Z,8.65
2022-10-05T01:13:41.659Z,8.71
2022-10-05T01:16:44.200Z,8.69
2022-10-05T01:19:21.475Z,8.64
2022-10-05T01:22:22.079Z,8.70
2022-10-05T01:25:17.912Z,8.68
2022-10-05T01:27:47.244Z,8.50
2022-10-05T01:30:23.388Z,8.62
2022-10-05T01:32:58.553Z,8.63
2022-10-05T01:35:33.969Z,8.39
2022-10-05T01:38:25.423Z,8.51
2022-10-05T01:40:51.691Z,8.42
2022-10-05T01:43:39.296Z,8.43
2022-10-05T01:46:37.879Z,8.51
2022-10-05T01:49:34.734Z,8.47
2022-10-05T01:52:18.960Z,8.35
2022-10-05T01:55:04.402Z,8.45
2022-10-05T01:57:46.155Z,8.40
2022-10-05T02:00:19.579Z,8.31
2022-10-05T02:02:50.134Z,8.24
2022-10-05T02:05:21.487Z,8.43
2022-10-05T02:08:03.533Z,8.38
2022-10-05T02:10:38.265Z,8.39
2022-10-05T02:13:24.535Z,8.37
2022-10-05T02:15:56.413Z,8.31
2022-10-05T02:18:35.550Z,8.39
2022-10-05T02:21:05.247Z,8.19
2022-10-05T02:23:36.185Z,8.19
2022-10-05T02:26:03.312Z,8.25
2022-10-05T02:28:38.233Z,8.09
2022-10-05T02:31:12.683Z,7.95
2022-10-05T02:33:39.483Z,7.75
2022-10-05T02:36:28.032Z,7.87
2022-10-05T02:39:14.828Z,7.72
2022-10-05T02:41:53.152Z,7.89
2022-10-05T02:44:45.614Z,7.95
2022-10-05T02:47:23.761Z,7.97
2022-10-05T02:50:12.140Z,7.69
2022-10-05T02:53:06.890Z,7.91
2022-10-05T02:55:52.107Z,7.86
2022-10-05T02:58:23.379Z,8.01
2022-10-05T03:00:58.945Z,7.96
2022-10-05T03:03:41.607Z,7.85
2022-10-05T03:06:25.679Z,7.76
2022-10-05T03:09:03.923Z,7.85
2022-10-05T03:11:46.666Z,7.89
2022-10-05T03:14:30.207Z,8.06
2022-10-05T03:17:18.048Z,8.10
2022-10-05T03:20:23.443Z,7.81
2022-10-05T03:22:56.936Z,8.04
2022-10-05T03:25:54.025Z,8.03
2022-10-05T03:28:36.094Z,8.08
2022-10-05T03:31:17.938Z,8.05
2022-10-05T03:33:53.481Z,8.07
2022-10-05T03:36:55.199Z,8.04
2022-10-05T03:39:39.020Z,8.14
2022-10-05T03:42:15.307Z,8.22
2022-10-05T03:45:00.515Z,8.08
2022-10-05T03:47:45.323Z,8.15
2022-10-05T03:50:44.599Z,7.89
2022-10-05T03:53:22.028Z,7.90
2022-10-05T03:56:12.583Z,7.87
2022-10-05T03:58:54.472Z,8.03
2022-10-05T04:01:36.179Z,8.05
2022-10-05T04:04:07.160Z,8.04
2022-10-05T04:06:39.051Z,7.94
2022-10-05T04:09:30.156Z,7.80
2022-10-05T04:12:15.564Z,7.58
2022-10-05T04:14:47.534Z,7.75
2022-10-05T04:17:17.952Z,7.79
2022-10-05T04:19:50.974Z,7.86
2022-10-05T04:22:25.296Z,7.85
2022-10-05T04:24:58.371Z,7.82
2022-10-05T04:27:33.383Z,7.94
2022-10-05T04:30:10.124Z,7.98
2022-10-05T04:32:43.746Z,7.92
2022-10-05T04:35:24.606Z,7.98
2022-10-05T04:38:29.225Z,8.03
2022-10-05T04:41:21.663Z,7.90
2022-10-05T04:44:19.596Z,7.75
2022-10-05T04:47:12.354Z,7.71
2022-10-05T04:49:57.005Z,7.82
2022-10-05T04:53:02.105Z,7.93
2022-10-05T04:55:53.078Z,8.00
2022-10-05T04:58:42.521Z,7.78
2022-10-05T05:01:28.977Z,7.73
2022-10-05T05:04:29.550Z,7.88
2022-10-05T05:07:11.719Z,7.79
2022-10-05T05:10:15.045Z,7.89
2022-10-05T05:12:47.649Z,7.81
2022-10-05T05:15:26.293Z,7.71
2022-10-05T05:18:29.915Z,7.61
2022-10-05T05:21:08.350Z,7.60
2022-10-05T05:23:44.246Z,7.65
2022-10-05T05:26:28.728Z,7.72
2022-10-05T05:29:23.332Z,7.77
2022-10-05T05:31:53.225Z,7.57
2022-10-05T05:34:32.288Z,7.68
2022-10-05T05:37:22.974Z,7.58
2022-10-05T05:40:03.776Z,7.63
2022-10-05T05:42:50.633Z,7.70
2022-10-05T05:45:41.748Z,7.72
2022-10-05T05:48:22.041Z,7.69
2022-10-05T05:51:39.359Z,7.77
2022-10-05T05:54:29.631Z,7.78
2022-10-05T05:57:13.064Z,7.73
2022-10-05T05:59:52.105Z,7.46
2022-10-05T06:02:25.460Z,7.75
2022-10-05T06:05:10.809Z,7.84
2022-10-05T06:07:38.337Z,7.78
2022-10-05T06:10:19.630Z,8.00
2022-10-05T06:13:01.895Z,8.05
2022-10-05T06:15:36.394Z,8.10
2022-10-05T06:18:11.187Z,8.06
2022-10-05T06:20:48.960Z,8.18
2022-10-05T06:23:23.266Z,8.23
2022-10-05T06:26:10.808Z,8.29
2022-10-05T06:28:39.085Z,8.23
2022-10-05T06:31:29.738Z,8.36
2022-10-05T06:34:16.550Z,8.30
2022-10-05T06:36:50.808Z,8.39
2022-10-05T06:39:38.296Z,8.38
2022-10-05T06:42:26.271Z,8.37
2022-10-05T06:45:48.455Z,8.41
2022-10-05T06:49:02.423Z,8.41
2022-10-05T06:52:32.239Z,8.49
2022-10-05T06:55:34.125Z,8.46
2022-10-05T06:58:34.655Z,8.50
2022-10-05T07:01:11.175Z,8.56
2022-10-05T07:04:09.533Z,8.59
2022-10-05T07:06:49.152Z,8.56
2022-10-05T07:09:21.237Z,8.49
2022-10-05T07:12:08.436Z,8.64
2022-10-05T07:15:03.411Z,8.69
2022-10-05T07:17:57.113Z,8.76
2022-10-05T07:20:32.561Z,8.68
2022-10-05T07:23:19.683Z,8.80
2022-10-05T07:26:01.726Z,8.85
2022-10-05T07:28:34.760Z,8.93
2022-10-05T07:31:17.001Z,8.98
2022-10-05T07:34:07.068Z,9.13
2022-10-05T07:36:59.683Z,9.19
2022-10-05T07:39:58.999Z,9.25
2022-10-05T07:43:06.890Z,9.30
2022-10-05T07:45:46.680Z,9.32
2022-10-05T07:48:26.242Z,9.40
2022-10-05T07:51:23.868Z,9.50
2022-10-05T07:54:16.637Z,9.54
2022-10-05T07:56:49.001Z,9.62
2022-10-05T07:59:29.879Z,9.76
2022-10-05T08:02:07.333Z,9.79
2022-10-05T08:04:41.964Z,9.88
2022-10-05T08:07:15.641Z,9.96
2022-10-05T08:09:58.328Z,10.08
2022-10-05T08:12:43.441Z,10.11
2022-10-05T08:15:20.477Z,10.22
2022-10-05T08:17:59.324Z,10.32
2022-10-05T08:20:39.184Z,10.41
2022-10-05T08:23:17.529Z,10.53
2022-10-05T08:26:01.262Z,10.60
2022-10-05T08:28:34.054Z,10.68
2022-10-05T08:31:10.850Z,10.80
2022-10-05T08:33:53.935Z,10.90
2022-10-05T08:36:28.950Z,10.98
2022-10-05T08:39:03.951Z,11.14
2022-10-05T08:41:58.807Z,11.28
2022-10-05T08:44:58.051Z,11.40
2022-10-05T08:47:39.476Z,11.50
2022-10-05T08:50:31.086Z,11.59
2022-10-05T08:53:16.315Z,11.73
2022-10-05T08:56:09.165Z,11.84
2022-10-05T08:58:53.867Z,11.91
2022-10-05T09:01:32.990Z,11.98
2022-10-05T09:04:24.831Z,12.03
2022-10-05T09:07:15.272Z,12.10
2022-10-05T09:10:15.769Z,12.16
2022-10-05T09:12:54.230Z,12.24
2022-10-05T09:15:39.340Z,12.33
2022-10-05T09:18:42.951Z,12.43
2022-10-05T09:21:18.444Z,12.48
2022-10-05T09:23:57.389Z,12.52
2022-10-05T09:26:45.772Z,12.86
2022-10-05T09:29:49.881Z,13.00
2022-10-05T09:32:51.762Z,13.14
2022-10-05T09:35:47.588Z,13.42
2022-10-05T09:38:25.410Z,13.65
2022-10-05T09:41:10.751Z,13.88
2022-10-05T09:44:12.743Z,14.13
2022-10-05T09:47:17.787Z,14.13
2022-10-05T09:50:00.965Z,14.32
2022-10-05T09:52:27.353Z,14.44
2022-10-05T09:55:16.558Z,14.59
2022-10-05T09:57:55.149Z,14.80
2022-10-05T10:00:28.041Z,14.92
2022-10-05T10:03:24.822Z,15.10
2022-10-05T10:06:24.437Z,15.28
2022-10-05T10:09:29.009Z,15.47
2022-10-05T10:12:17.018Z,15.57
2022-10-05T10:15:28.436Z,15.57
2022-10-05T10:18:23.805Z,15.21
2022-10-05T10:21:04.761Z,15.10
2022-10-05T10:24:08.850Z,14.97
2022-10-05T10:26:54.724Z,14.86
2022-10-05T10:29:45.867Z,15.08
2022-10-05T10:32:20.727Z,15.39
2022-10-05T10:35:22.019Z,15.67
2022-10-05T10:38:23.633Z,15.80
2022-10-05T10:41:02.191Z,15.94
2022-10-05T10:43:34.634Z,16.14
2022-10-05T10:46:39.372Z,16.28
2022-10-05T10:49:43.283Z,16.48
2022-10-05T10:52:19.859Z,16.62
2022-10-05T10:55:15.676Z,16.80
2022-10-05T10:58:04.143Z,16.92
2022-10-05T11:00:40.670Z,16.98
2022-10-05T11:03:40.757Z,17.10
2022-10-05T11:06:28.947Z,17.20
2022-10-05T11:09:03.069Z,17.32
2022-10-05T11:11:49.259Z,17.44
2022-10-05T11:14:40.104Z,17.63
2022-10-05T11:17:18.413Z,17.74
2022-10-05T11:20:06.771Z,17.76
2022-10-05T11:22:51.876Z,17.84
2022-10-05T11:25:56.280Z,18.00
2022-10-05T11:28:40.496Z,18.18
2022-10-05T11:31:25.587Z,18.32
2022-10-05T11:34:29.092Z,18.43
2022-10-05T11:37:14.570Z,18.53
2022-10-05T11:39:49.861Z,18.58
2022-10-05T11:42:50.013Z,18.55
2022-10-05T11:45:23.201Z,18.71
2022-10-05T11:47:58.597Z,18.82
2022-10-05T11:50:35.259Z,18.85
2022-10-05T11:53:12.012Z,18.92
2022-10-05T11:56:03.005Z,19.03
2022-10-05T11:58:36.471Z,18.92
2022-10-05T12:01:21.945Z,19.03
2022-10-05T12:04:03.324Z,18.97
2022-10-05T12:06:43.413Z,19.04
2022-10-05T12:09:36.990Z,18.97
2022-10-05T12:12:15.511Z,19.01
2022-10-05T12:14:54.126Z,18.96
2022-10-05T12:18:04.571Z,19.04
2022-10-05T12:20:53.245Z,19.04
2022-10-05T12:23:34.793Z,19.04
2022-10-05T12:26:05.658Z,18.96
2022-10-05T12:28:43.291Z,18.95
2022-10-05T12:31:15.633Z,18.88
2022-10-05T12:33:51.188Z,18.74
2022-10-05T12:36:52.430Z,18.79
2022-10-05T12:39:40.763Z,18.72
2022-10-05T12:42:22.007Z,18.67
2022-10-05T12:45:17.991Z,18.56
2022-10-05T12:47:59.031Z,18.60
2022-10-05T12:50:36.581Z,18.51
2022-10-05T12:53:30.272Z,18.54
2022-10-05T12:56:41.412Z,18.50
2022-10-05T12:59:07.725Z,18.52
2022-10-05T13:01:46.724Z,18.51
2022-10-05T13:04:25.236Z,18.55
2022-10-05T13:07:07.571Z,18.51
2022-10-05T13:09:44.762Z,18.58
2022-10-05T13:12:29.710Z,18.68
2022-10-05T13:15:14.646Z,18.56
2022-10-05T13:17:57.382Z,18.38
2022-10-05T13:20:31.824Z,18.05
2022-10-05T13:23:18.424Z,17.80
2022-10-05T13:25:56.948Z,17.63
2022-10-05T13:28:37.508Z,17.54
2022-10-05T13:31:15.123Z,17.44
2022-10-05T13:33:53.752Z,17.39
2022-10-05T13:36:53.522Z,17.31
2022-10-05T13:39:53.354Z,17.22
2022-10-05T13:42:45.911Z,17.19
2022-10-05T13:45:23.548Z,17.13
2022-10-05T13:47:58.341Z,17.15
2022-10-05T13:50:35.181Z,17.16
2022-10-05T13:53:29.517Z,17.18
2022-10-05T13:55:55.843Z,17.19
2022-10-05T13:58:24.904Z,17.14
2022-10-05T14:00:57.964Z,17.13
2022-10-05T14:03:37.196Z,17.09
2022-10-05T14:06:12.135Z,17.01
2022-10-05T14:08:54.360Z,17.00
2022-10-05T14:11:31.388Z,16.97
2022-10-05T14:14:25.690Z,16.98
2022-10-05T14:16:55.952Z,16.94
2022-10-05T14:19:40.857Z,17.01
2022-10-05T14:22:24.673Z,16.90
2022-10-05T14:25:02.836Z,16.84
2022-10-05T14:27:33.031Z,16.83
2022-10-05T14:30:16.846Z,16.83
2022-10-05T14:32:56.108Z,16.78
2022-10-05T14:35:30.208Z,16.89
2022-10-05T14:38:00.350Z,16.88
2022-10-05T14:40:36.116Z,16.78
2022-10-05T14:43:32.596Z,16.67
2022-10-05T14:46:23.410Z,16.62
2022-10-05T14:49:23.109Z,16.59
2022-10-05T14:51:54.152Z,16.59
2022-10-05T14:54:25.442Z,16.58
2022-10-05T14:57:04.448Z,16.52
2022-10-05T14:59:41.044Z,16.62
2022-10-05T15:02:47.951Z,16.52
2022-10-05T15:05:26.679Z,16.52
2022-10-05T15:08:01.219Z,16.44
2022-10-05T15:10:42.774Z,16.40
2022-10-05T15:13:15.505Z,16.41
2022-10-05T15:15:54.535Z,16.39
2022-10-05T15:18:49.920Z,16.33
2022-10-05T15:21:23.715Z,16.27
2022-10-05T15:23:57.315Z,16.25
2022-10-05T15:26:33.057Z,16.22
2022-10-05T15:29:07.923Z,16.18
2022-10-05T15:31:49.988Z,16.17
2022-10-05T15:34:27.093Z,16.14
2022-10-05T15:37:07.648Z,16.14
2022-10-05T15:39:35.066Z,16.12
2022-10-05T15:42:14.534Z,16.15
2022-10-05T15:45:06.348Z,16.15
2022-10-05T15:47:59.358Z,16.10
2022-10-05T15:50:29.593Z,16.15
2022-10-05T15:53:13.031Z,16.16
2022-10-05T15:55:46.988Z,16.17
2022-10-05T15:58:35.548Z,16.08
2022-10-05T16:01:11.032Z,16.12
2022-10-05T16:03:59.111Z,16.09
2022-10-05T16:06:56.807Z,16.06
2022-10-05T16:09:32.170Z,16.12
2022-10-05T16:12:10.675Z,16.11
2022-10-05T16:14:53.339Z,16.13
2022-10-05T16:17:43.632Z,16.19
2022-10-05T16:20:41.402Z,16.12
2022-10-05T16:23:28.289Z,16.13
2022-10-05T16:26:09.364Z,16.06
2022-10-05T16:28:50.332Z,16.01
2022-10-05T16:31:40.177Z,15.99
2022-10-05T16:34:29.521Z,15.98
2022-10-05T16:37:11.210Z,15.94
2022-10-05T16:39:49.920Z,15.90
2022-10-05T16:42:43.941Z,15.87
2022-10-05T16:45:44.783Z,15.82
2022-10-05T16:48:26.247Z,15.76
2022-10-05T16:51:16.265Z,15.71
2022-10-05T16:54:01.167Z,15.68
2022-10-05T16:56:39.637Z,15.63
2022-10-05T16:59:27.816Z,15.59
2022-10-05T17:02:16.473Z,15.58
2022-10-05T17:05:30.152Z,15.54
2022-10-05T17:08:15.207Z,15.48
2022-10-05T17:11:06.776Z,15.44
2022-10-05T17:13:43.381Z,15.34
2022-10-05T17:16:42.976Z,15.29
2022-10-05T17:19:32.913Z,15.21
2022-10-05T17:22:07.049Z,15.11
2022-10-05T17:24:49.023Z,15.05
2022-10-05T17:27:17.785Z,14.95
2022-10-05T17:30:15.066Z,14.92
2022-10-05T17:33:04.513Z,14.79
2022-10-05T17:35:51.752Z,14.76
2022-10-05T17:38:30.348Z,14.68
2022-10-05T17:40:59.725Z,14.63
2022-10-05T17:43:28.558Z,14.61
2022-10-05T17:46:00.992Z,14.61
2022-10-05T17:48:49.677Z,14.54
2022-10-05T17:51:47.108Z,14.49
2022-10-05T17:55:10.958Z,14.37
2022-10-05T17:57:39.471Z,14.36
2022-10-05T18:00:34.945Z,14.39
2022-10-05T18:03:33.681Z,14.35
2022-10-05T18:06:37.207Z,14.33
2022-10-05T18:09:42.445Z,14.32
2022-10-05T18:12:18.066Z,14.29
2022-10-05T18:15:07.032Z,14.19
2022-10-05T18:17:51.355Z,14.17
2022-10-05T18:20:28.625Z,14.12
2022-10-05T18:23:07.145Z,14.09
2022-10-05T18:25:33.439Z,14.06
2022-10-05T18:28:18.319Z,14.07
2022-10-05T18:31:12.024Z,14.05
2022-10-05T18:33:59.511Z,13.93
2022-10-05T18:37:07.092Z,13.97
2022-10-05T18:39:58.164Z,13.88
2022-10-05T18:42:33.401Z,13.92
2022-10-05T18:45:24.116Z,13.87
2022-10-05T18:47:59.456Z,13.90
2022-10-05T18:50:48.600Z,13.82
2022-10-05T18:53:33.157Z,13.84
2022-10-05T18:56:23.721Z,13.88
2022-10-05T18:59:14.488Z,13.93
2022-10-05T19:01:57.959Z,13.89
2022-10-05T19:04:32.123Z,13.92
2022-10-05T19:07:07.438Z,13.91
2022-10-05T19:10:13.065Z,13.93
2022-10-05T19:13:08.799Z,13.96
2022-10-05T19:15:45.562Z,13.95
2022-10-05T19:18:41.340Z,14.02
2022-10-05T19:21:16.987Z,14.03
2022-10-05T19:23:58.867Z,14.07
2022-10-05T19:26:43.995Z,14.12
2022-10-05T19:29:27.004Z,14.22
2022-10-05T19:32:13.049Z,14.31
2022-10-05T19:34:47.120Z,14.37
2022-10-05T19:37:21.372Z,14.44
2022-10-05T19:39:58.557Z,14.48
2022-10-05T19:42:42.363Z,14.50
2022-10-05T19:45:27.593Z,14.55
2022-10-05T19:48:13.757Z,14.61
2022-10-05T19:50:53.013Z,14.62
2022-10-05T19:53:29.387Z,14.63
2022-10-05T19:55:56.041Z,14.64
2022-10-05T19:58:31.450Z,14.66
2022-10-05T20:01:00.711Z,14.64
2022-10-05T20:03:37.148Z,14.66
2022-10-05T20:06:08.701Z,14.65
2022-10-05T20:08:43.768Z,14.64
2022-10-05T20:11:11.639Z,14.62
2022-10-05T20:13:41.780Z,14.61
2022-10-05T20:16:36.224Z,14.60
2022-10-05T20:19:41.052Z,14.56
2022-10-05T20:22:46.206Z,14.54
2022-10-05T20:25:29.216Z,14.51
2022-10-05T20:27:56.479Z,14.47
2022-10-05T20:30:28.707Z,14.46
2022-10-05T20:33:00.524Z,14.49
2022-10-05T20:35:30.448Z,14.48
2022-10-05T20:38:00.792Z,14.47
2022-10-05T20:40:30.421Z,14.48
2022-10-05T20:42:58.399Z,14.51
2022-10-05T20:45:24.992Z,14.51
2022-10-05T20:47:51.340Z,14.50
2022-10-05T20:50:18.282Z,14.47
2022-10-05T20:52:44.649Z,14.46
2022-10-05T20:55:11.906Z,14.44
2022-10-05T20:57:41.778Z,14.43
2022-10-05T21:00:12.558Z,14.41
2022-10-05T21:02:39.344Z,14.41
2022-10-05T21:05:07.467Z,14.41
2022-10-05T21:07:34.125Z,14.44
2022-10-05T21:10:01.224Z,14.42
2022-10-05T21:12:27.764Z,14.41
2022-10-05T21:14:54.210Z,14.44
2022-10-05T21:17:20.551Z,14.39
2022-10-05T21:19:47.317Z,14.34
2022-10-05T21:22:13.670Z,14.30
2022-10-05T21:24:40.904Z,14.25
2022-10-05T21:27:07.680Z,14.24
2022-10-05T21:29:35.251Z,14.20
2022-10-05T21:32:01.760Z,14.23
2022-10-05T21:34:28.680Z,14.21
2022-10-05T21:36:55.361Z,14.27
2022-10-05T21:39:21.879Z,14.28
2022-10-05T21:41:49.806Z,14.29
2022-10-05T21:44:16.752Z,14.30
2022-10-05T21:46:43.657Z,14.30
2022-10-05T21:49:10.076Z,14.32
2022-10-05T21:51:37.039Z,14.31
2022-10-05T21:54:11.116Z,14.33
2022-10-05T21:56:42.752Z,14.32
2022-10-05T21:59:12.422Z,14.27
2022-10-05T22:01:38.876Z,14.27
2022-10-05T22:04:06.104Z,14.25
2022-10-05T22:06:34.310Z,14.25
2022-10-05T22:09:01.311Z,14.26
2022-10-05T22:11:28.926Z,14.25
2022-10-05T22:14:01.982Z,14.24
2022-10-05T22:16:34.557Z,14.24
2022-10-05T22:19:06.565Z,14.23
2022-10-05T22:21:37.846Z,14.23
2022-10-05T22:24:04.506Z,14.23
2022-10-05T22:29:20.419Z,14.32
2022-10-05T22:31:48.677Z,14.33
2022-10-05T22:34:16.494Z,14.35
2022-10-05T22:36:43.051Z,14.37
2022-10-05T22:39:09.431Z,14.38
2022-10-05T22:41:35.915Z,14.40
2022-10-05T22:44:02.679Z,14.40
2022-10-05T22:46:29.190Z,14.41
2022-10-05T22:48:55.604Z,14.41
2022-10-05T22:51:21.988Z,14.42
2022-10-05T22:53:48.341Z,14.42
2022-10-05T22:56:15.529Z,14.42
2022-10-05T22:58:43.188Z,14.45
2022-10-05T23:01:16.494Z,14.41
2022-10-05T23:03:43.719Z,14.40
2022-10-05T23:06:16.332Z,14.39
2022-10-05T23:08:43.725Z,14.34
2022-10-05T23:11:12.171Z,14.38
2022-10-05T23:13:38.940Z,14.37
2022-10-05T23:16:10.700Z,14.37
2022-10-05T23:18:38.032Z,14.39
2022-10-05T23:21:07.725Z,14.37
2022-10-05T23:23:38.325Z,14.41
2022-10-05T23:26:06.579Z,14.41
2022-10-05T23:28:33.752Z,14.44
2022-10-05T23:31:02.593Z,14.46
2022-10-05T23:33:30.764Z,14.44
2022-10-05T23:36:06.688Z,14.45
2022-10-05T23:38:34.985Z,14.36
2022-10-05T23:41:02.567Z,14.42
2022-10-05T23:43:29.468Z,14.38
2022-10-05T23:45:56.309Z,14.41
2022-10-05T23:48:22.840Z,14.40
2022-10-05T23:50:49.976Z,14.36
2022-10-05T23:53:17.734Z,14.37
2022-10-05T23:55:44.709Z,14.33
2022-10-05T23:58:11.974Z,14.33
